Time;durP1;ratioP1;P1;durP2;ratioP2;P2;SDS_P1;SDS_P2;PMS_P1;PMS_P2;Temp;Humidity;BMP_temperature;BMP_pressure;BME280_temperature;BME280_humidity;BME280_pressure;Samples;Min_cycle;Max_cycle;Signal;HPM_P1;HPM_P2
2023/09/16 00:01:23;;;;;;;7.03;3.90;;;19.30;52.60;;;;;;5046344;27;114892;-79
2023/09/16 00:03:52;;;;;;;6.40;3.75;;;19.40;52.40;;;;;;5046138;27;114596;-79
2023/09/16 00:06:20;;;;;;;6.30;3.72;;;19.50;52.30;;;;;;5028696;27;114394;-79
2023/09/16 00:08:47;;;;;;;7.70;4.00;;;19.60;51.80;;;;;;5012531;27;114151;-78
2023/09/16 00:11:14;;;;;;;4.55;3.42;;;19.70;51.70;;;;;;5027576;27;117799;-78
2023/09/16 00:13:43;;;;;;;6.03;4.00;;;19.70;51.80;;;;;;5028084;27;114583;-78
2023/09/16 00:16:12;;;;;;;6.60;4.00;;;19.80;51.50;;;;;;5028321;27;114305;-78
2023/09/16 00:18:39;;;;;;;6.93;4.13;;;19.80;51.50;;;;;;5024894;28;114667;-78
2023/09/16 00:21:07;;;;;;;5.50;3.70;;;19.80;51.50;;;;;;5024341;28;115957;-79
2023/09/16 00:23:34;;;;;;;7.00;4.30;;;19.80;51.20;;;;;;5024392;28;114718;-78
2023/09/16 00:26:03;;;;;;;5.65;4.30;;;19.80;50.90;;;;;;4992125;28;114398;-78
2023/09/16 00:28:31;;;;;;;6.43;4.03;;;19.80;51.20;;;;;;5008982;28;114183;-78
2023/09/16 00:30:59;;;;;;;5.82;3.67;;;19.70;51.20;;;;;;5024386;28;115020;-79
2023/09/16 00:33:27;;;;;;;5.30;4.05;;;19.80;51.10;;;;;;5008233;28;114529;-78
2023/09/16 00:35:56;;;;;;;6.63;4.32;;;19.80;51.30;;;;;;4991758;28;114195;-78
2023/09/16 00:38:23;;;;;;;9.10;4.47;;;19.80;51.10;;;;;;5008782;28;114255;-78
2023/09/16 00:40:51;;;;;;;7.43;4.65;;;19.80;51.00;;;;;;5023823;28;114961;-78
2023/09/16 00:43:18;;;;;;;7.78;4.68;;;19.70;51.10;;;;;;4990839;28;115180;-78
2023/09/16 00:45:45;;;;;;;6.93;3.80;;;19.70;51.30;;;;;;5026408;28;114173;-79
2023/09/16 00:48:13;;;;;;;6.65;4.30;;;19.80;51.40;;;;;;5025000;28;114293;-79
2023/09/16 00:50:41;;;;;;;6.20;4.00;;;19.80;51.00;;;;;;5024026;28;115521;-78
2023/09/16 00:53:09;;;;;;;5.82;3.92;;;19.80;51.30;;;;;;5023438;27;114580;-78
2023/09/16 00:55:36;;;;;;;6.38;3.88;;;19.80;51.30;;;;;;5024782;28;114331;-78
2023/09/16 00:58:03;;;;;;;7.20;4.13;;;19.80;51.30;;;;;;5025428;28;114215;-78
2023/09/16 01:00:32;;;;;;;6.65;4.13;;;19.80;51.30;;;;;;4990428;28;117674;-79
2023/09/16 01:02:59;;;;;;;5.60;3.95;;;19.80;50.90;;;;;;5022881;28;117563;-78
2023/09/16 01:05:26;;;;;;;7.20;4.57;;;19.80;50.70;;;;;;5024149;28;114263;-78
2023/09/16 01:07:54;;;;;;;5.40;3.47;;;19.80;50.70;;;;;;4991259;28;114717;-77
2023/09/16 01:10:22;;;;;;;5.82;3.70;;;19.80;51.20;;;;;;4990381;28;117525;-77
2023/09/16 01:12:53;;;;;;;5.65;4.03;;;19.80;51.40;;;;;;5024076;28;114831;-77
2023/09/16 01:15:22;;;;;;;6.35;3.92;;;19.80;51.30;;;;;;4992285;28;114252;-78
2023/09/16 01:18:08;;;;;;;7.40;4.00;;;19.60;50.90;;;;;;5024479;28;114381;-78
2023/09/16 01:20:38;;;;;;;6.15;3.85;;;19.60;51.30;;;;;;5024755;28;114959;-78
2023/09/16 01:23:06;;;;;;;5.90;4.07;;;19.50;51.50;;;;;;5007990;28;114669;-77
2023/09/16 01:25:33;;;;;;;6.22;3.63;;;19.50;51.60;;;;;;5007919;28;114236;-78
2023/09/16 01:28:01;;;;;;;5.90;4.20;;;19.60;51.70;;;;;;5025973;28;114589;-77
2023/09/16 01:30:28;;;;;;;5.80;3.90;;;19.60;51.20;;;;;;5023183;28;114963;-77
2023/09/16 01:33:15;;;;;;;6.03;3.47;;;19.70;51.60;;;;;;5023663;28;114655;-79
2023/09/16 01:35:42;;;;;;;6.25;4.00;;;19.80;51.40;;;;;;5024314;28;114571;-78
2023/09/16 01:38:09;;;;;;;6.05;3.60;;;19.70;51.50;;;;;;5007951;28;114248;-78
2023/09/16 01:40:37;;;;;;;5.65;4.05;;;19.70;50.90;;;;;;4990623;28;115055;-78
2023/09/16 01:43:04;;;;;;;5.25;3.72;;;19.70;51.00;;;;;;4990741;28;114827;-78
2023/09/16 01:45:41;;;;;;;5.80;4.00;;;19.70;51.20;;;;;;5007330;28;114265;-78
2023/09/16 01:48:09;;;;;;;6.70;4.18;;;19.80;51.00;;;;;;5025923;27;114262;-78
2023/09/16 01:50:36;;;;;;;7.50;4.28;;;19.70;50.90;;;;;;5024544;27;115039;-78
2023/09/16 01:53:06;;;;;;;5.63;3.63;;;19.70;50.20;;;;;;5024209;27;115152;-79
2023/09/16 01:55:34;;;;;;;6.53;4.28;;;19.80;50.80;;;;;;5007632;28;114481;-78
2023/09/16 01:58:01;;;;;;;5.53;3.70;;;19.80;51.00;;;;;;5024118;28;114486;-77
2023/09/16 02:00:28;;;;;;;6.70;4.07;;;19.70;50.90;;;;;;5006429;28;114837;-78
2023/09/16 02:02:58;;;;;;;6.97;3.53;;;19.70;51.10;;;;;;5023375;28;114893;-78
2023/09/16 02:05:25;;;;;;;5.25;3.67;;;19.70;51.10;;;;;;5008970;28;114544;-79
2023/09/16 02:07:52;;;;;;;6.90;3.92;;;19.80;51.20;;;;;;5027309;28;114455;-79
2023/09/16 02:10:19;;;;;;;6.40;4.03;;;19.80;51.00;;;;;;5027680;27;114853;-78
2023/09/16 02:12:46;;;;;;;6.43;3.72;;;19.80;50.80;;;;;;5028019;27;115161;-78
2023/09/16 02:15:13;;;;;;;6.32;3.80;;;19.80;50.80;;;;;;5027414;28;114316;-78
2023/09/16 02:17:41;;;;;;;5.97;4.07;;;19.80;50.90;;;;;;5010661;28;114430;-78
2023/09/16 02:20:12;;;;;;;5.72;3.90;;;19.80;50.20;;;;;;5009138;28;115089;-78
2023/09/16 02:22:40;;;;;;;5.38;3.78;;;19.80;50.60;;;;;;5010361;28;115199;-78
2023/09/16 02:25:08;;;;;;;5.65;3.88;;;19.70;50.90;;;;;;5010656;28;114441;-78
2023/09/16 02:27:35;;;;;;;6.50;4.07;;;19.70;51.00;;;;;;5026613;28;114278;-77
2023/09/16 02:30:03;;;;;;;6.22;3.90;;;19.70;51.10;;;;;;5026208;28;114982;-79
2023/09/16 02:32:30;;;;;;;6.07;3.65;;;19.70;50.70;;;;;;5025913;28;115640;-79
2023/09/16 02:34:57;;;;;;;5.30;4.00;;;19.70;50.90;;;;;;5028422;27;114233;-77
2023/09/16 02:37:24;;;;;;;7.72;5.00;;;19.70;50.60;;;;;;5027426;28;114481;-78
2023/09/16 02:39:51;;;;;;;6.90;4.30;;;19.60;50.30;;;;;;5026065;28;115475;-78
2023/09/16 02:42:19;;;;;;;5.80;3.83;;;19.60;50.60;;;;;;5025700;28;116830;-78
2023/09/16 02:44:46;;;;;;;8.00;4.28;;;19.60;50.90;;;;;;4993336;28;114494;-78
2023/09/16 02:47:13;;;;;;;5.57;4.28;;;19.50;50.50;;;;;;5026646;28;114357;-79
2023/09/16 02:49:40;;;;;;;7.03;3.83;;;19.50;50.20;;;;;;5025890;28;114964;-79
2023/09/16 02:52:07;;;;;;;5.72;3.83;;;19.30;51.10;;;;;;5027079;28;114646;-79
2023/09/16 02:54:34;;;;;;;6.00;4.13;;;19.30;51.30;;;;;;5010281;28;114449;-78
2023/09/16 02:57:01;;;;;;;6.40;4.10;;;19.30;51.20;;;;;;5026774;28;114537;-78
2023/09/16 02:59:29;;;;;;;6.45;3.88;;;19.30;50.70;;;;;;5025573;28;115075;-79
2023/09/16 03:01:57;;;;;;;6.50;3.90;;;19.30;51.40;;;;;;5025991;28;115748;-78
2023/09/16 03:04:24;;;;;;;6.43;4.05;;;19.40;51.30;;;;;;5026561;28;114286;-77
2023/09/16 03:06:51;;;;;;;5.80;3.95;;;19.40;51.20;;;;;;5010055;28;114163;-80
2023/09/16 03:09:19;;;;;;;6.25;4.30;;;19.40;51.30;;;;;;5026318;28;115738;-78
2023/09/16 03:11:47;;;;;;;6.90;4.43;;;19.40;50.80;;;;;;4992946;28;115175;-78
2023/09/16 03:14:15;;;;;;;5.28;3.95;;;19.40;50.70;;;;;;5009963;28;114356;-79
2023/09/16 03:16:42;;;;;;;4.93;3.53;;;19.40;50.80;;;;;;5025603;27;114186;-79
2023/09/16 03:19:10;;;;;;;7.32;4.18;;;19.40;51.10;;;;;;5024927;28;116032;-79
2023/09/16 03:21:38;;;;;;;5.38;3.75;;;19.40;51.10;;;;;;5008866;28;114739;-78
2023/09/16 03:24:05;;;;;;;8.00;3.75;;;19.40;50.90;;;;;;5026290;28;114512;-79
2023/09/16 03:26:33;;;;;;;7.32;4.82;;;19.40;51.20;;;;;;5026748;28;114076;-80
2023/09/16 03:29:01;;;;;;;6.97;4.45;;;19.40;50.60;;;;;;5008678;28;114925;-79
2023/09/16 03:31:30;;;;;;;5.15;3.33;;;19.50;50.60;;;;;;5008511;28;117734;-78
2023/09/16 03:34:09;;;;;;;5.95;4.05;;;19.50;50.80;;;;;;5025654;28;114240;-79
2023/09/16 03:36:37;;;;;;;6.22;3.80;;;19.40;50.80;;;;;;5026121;28;114343;-79
2023/09/16 03:39:05;;;;;;;6.45;4.35;;;19.40;51.00;;;;;;5025150;28;115008;-79
2023/09/16 03:41:32;;;;;;;7.22;4.55;;;19.40;50.70;;;;;;4992251;28;114698;-78
2023/09/16 03:44:01;;;;;;;7.95;3.80;;;19.40;50.60;;;;;;5025936;28;114385;-79
2023/09/16 03:46:31;;;;;;;9.38;5.07;;;19.40;50.90;;;;;;5025978;28;114295;-78
2023/09/16 03:49:01;;;;;;;5.15;3.70;;;19.40;50.20;;;;;;5024857;28;114932;-79
2023/09/16 03:51:28;;;;;;;5.53;3.97;;;19.40;50.60;;;;;;5008703;28;114787;-79
2023/09/16 03:53:56;;;;;;;5.53;3.63;;;19.30;50.80;;;;;;4993165;28;114191;-79
2023/09/16 03:56:23;;;;;;;6.30;4.22;;;19.30;51.30;;;;;;5025512;28;114528;-78
2023/09/16 03:58:50;;;;;;;6.50;4.13;;;19.30;51.30;;;;;;5025303;27;114881;-78
2023/09/16 04:01:22;;;;;;;6.95;4.22;;;19.30;50.90;;;;;;5008584;28;115463;-78
2023/09/16 04:03:49;;;;;;;6.72;4.50;;;19.30;50.90;;;;;;5025833;28;114406;-78
2023/09/16 04:06:17;;;;;;;5.25;3.70;;;19.30;50.90;;;;;;5025924;28;114633;-78
2023/09/16 04:08:44;;;;;;;6.43;4.13;;;19.30;51.20;;;;;;5008352;28;115612;-78
2023/09/16 04:11:11;;;;;;;8.57;5.47;;;19.30;51.20;;;;;;5024554;28;115453;-78
2023/09/16 04:13:38;;;;;;;5.90;4.57;;;19.30;50.30;;;;;;5009105;28;114238;-77
2023/09/16 04:16:06;;;;;;;5.78;3.90;;;19.30;50.50;;;;;;5025877;28;114359;-78
2023/09/16 04:18:34;;;;;;;7.43;5.00;;;19.30;51.10;;;;;;5024049;28;114952;-79
2023/09/16 04:21:02;;;;;;;6.60;4.85;;;19.30;51.00;;;;;;5024605;28;114760;-77
2023/09/16 04:23:30;;;;;;;6.97;4.05;;;19.30;50.60;;;;;;5025944;27;114196;-78
2023/09/16 04:26:00;;;;;;;6.05;4.00;;;19.30;51.10;;;;;;5025559;28;114528;-77
2023/09/16 04:28:28;;;;;;;6.75;4.25;;;19.30;51.20;;;;;;5007892;28;115509;-78
2023/09/16 04:30:56;;;;;;;7.22;4.57;;;19.30;50.90;;;;;;5024276;28;115315;-78
2023/09/16 04:33:27;;;;;;;5.93;4.13;;;19.30;50.90;;;;;;5024994;28;114319;-77
2023/09/16 04:35:56;;;;;;;6.57;4.00;;;19.30;51.20;;;;;;5025503;28;114205;-77
2023/09/16 04:38:25;;;;;;;6.47;4.10;;;19.30;51.00;;;;;;5007937;28;115009;-77
2023/09/16 04:40:55;;;;;;;6.88;5.05;;;19.30;50.90;;;;;;5024675;28;115034;-78
2023/09/16 04:43:25;;;;;;;6.95;4.38;;;19.30;50.60;;;;;;5008154;28;114168;-78
2023/09/16 04:45:54;;;;;;;6.78;5.25;;;19.40;50.80;;;;;;4991504;28;114308;-77
2023/09/16 04:48:48;;;;;;;8.13;5.45;;;19.40;50.20;;;;;;5007788;28;117726;-78
2023/09/16 04:51:16;;;;;;;9.85;4.40;;;19.30;49.90;;;;;;5007532;28;114651;-78
2023/09/16 04:53:43;;;;;;;6.82;4.07;;;19.40;50.70;;;;;;4975661;28;114480;-78
2023/09/16 04:56:10;;;;;;;6.75;4.82;;;19.50;50.70;;;;;;5024608;28;114386;-79
2023/09/16 04:58:43;;;;;;;6.77;4.23;;;19.60;50.20;;;;;;4977082;28;115381;-78
2023/09/16 05:01:12;;;;;;;6.88;4.97;;;19.70;50.30;;;;;;5023991;28;115169;-78
2023/09/16 05:03:39;;;;;;;7.68;3.78;;;19.70;50.00;;;;;;5024962;28;114422;-77
2023/09/16 05:06:07;;;;;;;6.10;4.38;;;19.80;50.00;;;;;;5008625;28;114866;-78
2023/09/16 05:08:35;;;;;;;6.63;4.15;;;19.90;49.00;;;;;;5007445;28;115459;-78
2023/09/16 05:11:03;;;;;;;7.18;3.95;;;20.00;49.10;;;;;;5006640;28;117894;-78
2023/09/16 05:13:41;;;;;;;6.03;3.90;;;20.10;49.20;;;;;;5024302;28;114347;-78
2023/09/16 05:16:08;;;;;;;6.88;4.35;;;20.30;48.70;;;;;;5025919;27;114310;-77
2023/09/16 05:18:35;;;;;;;7.00;4.50;;;20.30;48.40;;;;;;5006634;28;114935;-78
2023/09/16 05:21:03;;;;;;;5.43;3.63;;;20.30;48.40;;;;;;4990348;28;115872;-78
2023/09/16 05:23:33;;;;;;;7.20;4.20;;;20.40;48.50;;;;;;5024751;28;114402;-78
2023/09/16 05:26:03;;;;;;;8.20;4.75;;;20.60;48.00;;;;;;5008493;28;114483;-79
2023/09/16 05:28:33;;;;;;;7.50;4.72;;;20.70;47.60;;;;;;4975451;28;115434;-79
2023/09/16 05:31:03;;;;;;;7.05;4.53;;;20.70;47.50;;;;;;5023543;28;116305;-78
2023/09/16 05:33:34;;;;;;;5.30;4.28;;;20.80;47.30;;;;;;5024675;28;114474;-78
2023/09/16 05:36:01;;;;;;;8.25;5.63;;;20.80;47.20;;;;;;5024482;28;114037;-78
2023/09/16 05:38:29;;;;;;;9.98;5.45;;;20.80;47.10;;;;;;4990011;28;115059;-78
2023/09/16 05:40:56;;;;;;;6.93;4.93;;;20.80;46.90;;;;;;5025723;28;114587;-78
2023/09/16 05:43:24;;;;;;;8.82;4.63;;;20.90;47.20;;;;;;5011296;28;114167;-78
2023/09/16 05:45:52;;;;;;;6.75;4.85;;;20.80;47.20;;;;;;5027987;28;114302;-78
2023/09/16 05:48:20;;;;;;;7.82;4.53;;;20.90;47.20;;;;;;5010372;28;114900;-79
2023/09/16 05:50:57;;;;;;;6.75;4.90;;;21.00;47.00;;;;;;5026873;28;114631;-78
2023/09/16 05:53:29;;;;;;;7.28;5.03;;;21.20;46.60;;;;;;5011357;28;114656;-78
2023/09/16 05:56:05;;;;;;;6.65;3.78;;;21.20;46.50;;;;;;4997663;28;114543;-78
2023/09/16 05:58:35;;;;;;;6.15;4.10;;;21.20;46.60;;;;;;5014953;28;114949;-78
2023/09/16 06:01:03;;;;;;;6.15;3.65;;;21.30;46.00;;;;;;5029296;28;114559;-79
2023/09/16 06:03:31;;;;;;;6.72;4.25;;;21.30;46.40;;;;;;5026966;28;114421;-77
2023/09/16 06:05:59;;;;;;;9.68;4.18;;;21.40;45.70;;;;;;5027356;28;114473;-78
2023/09/16 06:08:28;;;;;;;5.97;4.05;;;21.40;45.80;;;;;;5026550;28;114963;-79
2023/09/16 06:10:56;;;;;;;6.00;4.20;;;21.60;45.50;;;;;;5026247;28;118004;-78
2023/09/16 06:13:24;;;;;;;6.53;3.72;;;21.60;45.00;;;;;;5010915;28;114398;-78
2023/09/16 06:15:53;;;;;;;5.75;3.83;;;21.60;45.20;;;;;;4994497;28;114087;-79
2023/09/16 06:18:22;;;;;;;6.70;3.30;;;21.60;45.00;;;;;;5025787;28;114669;-78
2023/09/16 06:20:49;;;;;;;7.05;3.83;;;21.50;44.80;;;;;;5026415;28;116730;-78
2023/09/16 06:23:17;;;;;;;5.95;3.47;;;21.30;45.60;;;;;;5027341;28;114438;-78
2023/09/16 06:25:46;;;;;;;5.90;3.60;;;21.50;45.20;;;;;;4994763;28;114244;-78
2023/09/16 06:28:13;;;;;;;5.63;3.45;;;21.50;45.30;;;;;;5009201;28;115820;-78
2023/09/16 06:30:40;;;;;;;7.93;4.15;;;21.40;45.70;;;;;;5026061;28;115977;-78
2023/09/16 06:33:07;;;;;;;6.35;3.38;;;21.40;45.70;;;;;;5028324;27;114235;-78
2023/09/16 06:35:35;;;;;;;5.50;3.38;;;21.50;45.20;;;;;;5027130;28;114378;-77
2023/09/16 06:38:04;;;;;;;4.90;3.38;;;21.50;45.30;;;;;;5026170;28;114947;-78
2023/09/16 06:40:31;;;;;;;5.38;3.42;;;21.50;45.20;;;;;;5026333;28;114610;-79
2023/09/16 06:42:59;;;;;;;5.10;3.30;;;21.60;45.00;;;;;;5010542;28;114439;-79
2023/09/16 06:45:28;;;;;;;5.60;3.28;;;21.60;45.10;;;;;;5027546;28;114192;-78
2023/09/16 06:47:56;;;;;;;7.82;3.50;;;21.60;45.40;;;;;;5025788;28;116916;-79
2023/09/16 06:50:23;;;;;;;5.72;3.90;;;21.50;45.00;;;;;;5025817;28;114714;-79
2023/09/16 06:52:50;;;;;;;7.07;3.50;;;21.30;45.50;;;;;;4991733;28;114439;-80
2023/09/16 06:55:17;;;;;;;4.85;3.50;;;21.20;45.80;;;;;;5028190;27;114499;-78
2023/09/16 06:57:45;;;;;;;6.10;3.03;;;21.20;45.90;;;;;;5025150;28;117055;-77
2023/09/16 07:00:13;;;;;;;5.95;3.40;;;21.10;46.30;;;;;;5025495;28;114639;-77
2023/09/16 07:02:40;;;;;;;6.32;3.38;;;21.10;46.60;;;;;;5027911;27;114217;-78
2023/09/16 07:05:07;;;;;;;5.28;3.22;;;21.20;46.30;;;;;;5027920;28;114120;-79
2023/09/16 07:07:34;;;;;;;4.72;2.83;;;21.20;46.30;;;;;;5025913;28;115630;-78
2023/09/16 07:10:01;;;;;;;6.43;3.85;;;21.30;46.40;;;;;;5008854;28;115009;-79
2023/09/16 07:12:31;;;;;;;5.97;3.40;;;21.40;46.00;;;;;;5026601;28;114203;-78
2023/09/16 07:15:01;;;;;;;5.32;3.40;;;21.50;45.90;;;;;;5027553;27;114379;-78
2023/09/16 07:17:32;;;;;;;6.90;4.07;;;21.50;46.10;;;;;;5008281;28;116085;-78
2023/09/16 07:19:59;;;;;;;5.30;2.80;;;21.60;45.80;;;;;;5009119;28;114778;-79
2023/09/16 07:22:26;;;;;;;6.40;3.38;;;21.60;45.70;;;;;;5026526;28;114108;-77
2023/09/16 07:24:54;;;;;;;5.82;3.65;;;21.70;45.70;;;;;;5027646;27;114401;-78
2023/09/16 07:27:21;;;;;;;5.65;3.70;;;21.70;46.10;;;;;;5026624;28;115134;-79
2023/09/16 07:29:48;;;;;;;6.15;3.60;;;21.80;46.30;;;;;;5026540;27;114916;-78
2023/09/16 07:32:15;;;;;;;6.65;3.65;;;21.90;46.00;;;;;;5026195;28;114130;-78
2023/09/16 07:34:42;;;;;;;5.85;3.53;;;22.00;46.00;;;;;;5025930;28;114305;-80
2023/09/16 07:37:09;;;;;;;5.13;3.47;;;22.10;46.20;;;;;;5025093;28;115046;-80
2023/09/16 07:39:36;;;;;;;5.43;3.47;;;22.20;45.90;;;;;;5026523;28;114985;-78
2023/09/16 07:42:03;;;;;;;5.30;3.50;;;22.20;45.90;;;;;;5025247;28;114625;-79
2023/09/16 07:44:30;;;;;;;9.35;3.42;;;22.30;45.70;;;;;;5026201;28;114373;-78
2023/09/16 07:46:57;;;;;;;5.57;3.75;;;22.50;45.90;;;;;;5024395;28;115214;-79
2023/09/16 07:49:25;;;;;;;6.80;3.40;;;22.50;46.00;;;;;;5026270;28;114550;-80
2023/09/16 07:51:52;;;;;;;5.35;4.20;;;22.40;46.00;;;;;;5027252;27;114415;-79
2023/09/16 07:54:19;;;;;;;5.63;4.07;;;22.50;46.30;;;;;;5026327;27;114605;-78
2023/09/16 07:56:46;;;;;;;6.65;3.92;;;22.60;46.30;;;;;;5008177;28;118071;-79
2023/09/16 07:59:19;;;;;;;4.38;3.33;;;22.70;46.30;;;;;;5026543;27;114579;-78
2023/09/16 08:01:47;;;;;;;4.90;3.10;;;22.80;45.50;;;;;;5026100;28;114150;-79
2023/09/16 08:04:14;;;;;;;5.53;3.50;;;22.80;46.10;;;;;;5025522;27;114189;-78
2023/09/16 08:06:41;;;;;;;6.32;3.45;;;22.90;46.00;;;;;;5025819;28;115015;-78
2023/09/16 08:09:08;;;;;;;6.47;3.33;;;22.90;45.40;;;;;;4974923;28;116092;-79
2023/09/16 08:11:35;;;;;;;4.97;3.35;;;22.90;45.20;;;;;;5026901;27;114277;-79
2023/09/16 08:14:05;;;;;;;5.15;3.50;;;22.90;45.00;;;;;;5026986;28;114456;-80
2023/09/16 08:16:32;;;;;;;6.25;3.10;;;22.90;46.00;;;;;;5025835;27;114917;-80
2023/09/16 08:18:59;;;;;;;6.78;4.18;;;22.90;45.40;;;;;;5024543;28;114723;-77
2023/09/16 08:21:26;;;;;;;5.07;3.30;;;22.90;45.30;;;;;;5008991;28;114198;-78
2023/09/16 08:23:53;;;;;;;7.47;3.60;;;23.00;45.70;;;;;;5027137;28;114126;-79
2023/09/16 08:26:20;;;;;;;5.25;3.33;;;23.10;45.80;;;;;;5025683;27;114861;-79
2023/09/16 08:28:48;;;;;;;5.45;3.40;;;23.10;45.60;;;;;;5025827;28;115150;-79
2023/09/16 08:31:16;;;;;;;5.35;3.80;;;23.20;45.00;;;;;;5025994;27;114171;-79
2023/09/16 08:33:43;;;;;;;4.95;3.10;;;23.20;45.30;;;;;;5026526;28;114257;-79
2023/09/16 08:36:10;;;;;;;5.28;3.50;;;23.20;45.50;;;;;;5024312;28;114957;-77
2023/09/16 08:38:37;;;;;;;6.60;3.70;;;23.30;45.40;;;;;;5025304;27;116107;-77
2023/09/16 08:41:28;;;;;;;5.47;4.10;;;23.30;46.30;;;;;;5025249;28;114309;-78
2023/09/16 08:43:58;;;;;;;6.63;3.40;;;23.40;46.30;;;;;;5026499;27;114009;-78
2023/09/16 08:46:27;;;;;;;7.05;4.03;;;23.30;45.80;;;;;;5007688;28;114850;-78
2023/09/16 08:48:55;;;;;;;5.10;3.53;;;23.30;46.00;;;;;;5026951;27;114659;-77
2023/09/16 08:51:22;;;;;;;7.28;3.38;;;23.20;45.90;;;;;;5028322;27;114027;-78
2023/09/16 08:53:52;;;;;;;6.50;4.07;;;23.20;45.90;;;;;;5010236;28;114325;-79
2023/09/16 08:56:21;;;;;;;5.10;3.38;;;23.20;45.80;;;;;;5023579;28;115091;-78
2023/09/16 08:58:49;;;;;;;6.18;3.35;;;23.30;45.80;;;;;;5024050;28;115206;-78
2023/09/16 09:01:17;;;;;;;4.72;3.30;;;23.40;45.60;;;;;;5025158;28;114450;-78
2023/09/16 09:03:45;;;;;;;4.82;3.45;;;23.40;45.60;;;;;;5008231;28;114334;-78
2023/09/16 09:06:12;;;;;;;4.70;3.38;;;23.40;45.20;;;;;;5023065;28;117213;-79
2023/09/16 09:08:46;;;;;;;5.93;3.40;;;23.50;45.50;;;;;;5024154;28;114698;-78
2023/09/16 09:11:15;;;;;;;5.55;3.70;;;23.60;45.40;;;;;;5025666;28;114934;-79
2023/09/16 09:13:42;;;;;;;6.20;3.42;;;23.70;45.30;;;;;;5025292;27;114437;-78
2023/09/16 09:16:09;;;;;;;6.30;3.50;;;23.70;45.30;;;;;;5027105;28;114705;-78
2023/09/16 09:18:36;;;;;;;6.03;3.85;;;23.70;45.60;;;;;;4993191;28;114926;-78
2023/09/16 09:21:04;;;;;;;5.10;3.80;;;23.70;45.50;;;;;;4994955;28;114305;-79
2023/09/16 09:23:32;;;;;;;4.53;3.60;;;23.70;46.60;;;;;;5011695;28;114299;-78
2023/09/16 09:25:59;;;;;;;5.85;3.75;;;23.80;45.80;;;;;;5010895;28;115523;-79
2023/09/16 09:28:27;;;;;;;5.25;3.67;;;23.80;45.80;;;;;;5028286;27;115389;-78
2023/09/16 09:30:56;;;;;;;5.05;3.40;;;23.90;45.80;;;;;;5028075;28;114284;-79
2023/09/16 09:33:25;;;;;;;5.55;4.28;;;23.80;45.40;;;;;;5029456;27;114240;-79
2023/09/16 09:36:13;;;;;;;9.88;3.83;;;23.80;45.90;;;;;;5010944;28;115073;-77
2023/09/16 09:38:47;;;;;;;5.43;3.80;;;24.00;45.50;;;;;;5028747;27;114597;-79
2023/09/16 09:41:15;;;;;;;5.85;4.00;;;23.90;45.30;;;;;;5029362;28;114139;-78
2023/09/16 09:43:42;;;;;;;5.55;3.72;;;24.00;46.20;;;;;;5029537;27;114041;-79
2023/09/16 09:46:09;;;;;;;5.55;4.18;;;24.00;45.70;;;;;;5009918;28;115073;-79
2023/09/16 09:48:36;;;;;;;6.15;4.18;;;24.00;45.80;;;;;;5026968;28;116308;-79
2023/09/16 09:51:07;;;;;;;8.25;4.25;;;24.00;45.40;;;;;;5026648;28;114340;-79
2023/09/16 09:53:34;;;;;;;6.60;4.10;;;24.10;46.00;;;;;;5027856;28;114325;-78
2023/09/16 09:56:01;;;;;;;7.85;4.15;;;24.10;45.90;;;;;;5027451;28;115527;-79
2023/09/16 09:58:28;;;;;;;6.45;4.50;;;24.10;46.30;;;;;;5026621;28;114675;-78
2023/09/16 10:00:56;;;;;;;7.28;4.50;;;24.00;45.80;;;;;;5027736;28;114414;-78
2023/09/16 10:03:23;;;;;;;8.98;4.57;;;23.90;45.90;;;;;;5011658;28;114201;-79
2023/09/16 10:05:50;;;;;;;5.78;4.10;;;23.90;45.70;;;;;;5026714;28;114841;-80
2023/09/16 10:08:17;;;;;;;6.50;4.75;;;23.80;45.70;;;;;;5026423;28;117028;-79
2023/09/16 10:10:46;;;;;;;6.20;4.13;;;23.90;45.60;;;;;;5010657;28;114271;-78
2023/09/16 10:13:13;;;;;;;7.38;3.90;;;24.00;45.50;;;;;;5028579;28;114447;-78
2023/09/16 10:15:41;;;;;;;5.07;3.60;;;24.00;44.80;;;;;;5026961;28;116279;-77
2023/09/16 10:18:08;;;;;;;5.68;3.85;;;23.90;45.10;;;;;;5011579;28;114710;-79
2023/09/16 10:20:39;;;;;;;6.13;4.13;;;23.90;45.20;;;;;;5011044;28;114983;-79
2023/09/16 10:23:06;;;;;;;6.38;4.10;;;23.90;45.40;;;;;;4994647;28;114630;-79
2023/09/16 10:25:33;;;;;;;5.57;4.03;;;24.00;45.50;;;;;;5010038;27;114971;-77
2023/09/16 10:28:06;;;;;;;6.40;4.30;;;24.00;45.10;;;;;;4995193;28;114568;-78
2023/09/16 10:30:34;;;;;;;8.82;3.97;;;24.00;44.50;;;;;;5028504;28;114407;-78
2023/09/16 10:33:08;;;;;;;4.95;3.70;;;24.00;44.50;;;;;;5027857;28;114893;-78
2023/09/16 10:35:40;;;;;;;5.22;3.80;;;24.00;44.50;;;;;;5025473;28;117037;-79
2023/09/16 10:38:09;;;;;;;6.90;4.03;;;24.00;44.60;;;;;;5027200;27;115717;-78
2023/09/16 10:40:37;;;;;;;5.60;4.25;;;24.00;44.50;;;;;;5028599;27;114387;-79
2023/09/16 10:43:05;;;;;;;5.22;3.97;;;24.00;44.60;;;;;;5026959;28;114399;-79
2023/09/16 10:45:32;;;;;;;5.88;4.00;;;23.90;44.50;;;;;;5027581;28;114948;-79
2023/09/16 10:48:01;;;;;;;5.35;3.92;;;23.90;44.50;;;;;;5009577;28;118135;-79
2023/09/16 10:50:30;;;;;;;7.03;3.92;;;23.80;44.80;;;;;;5027389;28;114383;-78
2023/09/16 10:53:10;;;;;;;6.57;3.67;;;23.90;44.80;;;;;;5028431;28;114293;-79
2023/09/16 10:55:53;;;;;;;4.63;3.40;;;23.90;44.50;;;;;;5027132;28;115235;-79
2023/09/16 10:58:31;;;;;;;6.68;4.10;;;23.80;44.70;;;;;;5027131;28;114653;-80
2023/09/16 11:00:58;;;;;;;5.18;4.05;;;23.90;44.50;;;;;;5026733;28;114382;-78
2023/09/16 11:03:30;;;;;;;6.40;4.70;;;23.80;44.80;;;;;;5027953;28;114304;-78
2023/09/16 11:06:01;;;;;;;4.60;3.83;;;23.90;45.10;;;;;;5026079;28;114939;-78
2023/09/16 11:08:28;;;;;;;7.38;4.28;;;24.00;44.90;;;;;;5009436;28;115795;-79
2023/09/16 11:10:56;;;;;;;4.95;3.47;;;24.00;44.80;;;;;;5010197;28;114152;-78
2023/09/16 11:13:27;;;;;;;5.50;3.53;;;24.00;44.80;;;;;;5009113;28;114300;-79
2023/09/16 11:15:58;;;;;;;7.22;3.83;;;24.00;44.80;;;;;;5009224;28;115061;-79
2023/09/16 11:18:26;;;;;;;4.78;3.88;;;24.00;45.10;;;;;;5025483;28;115083;-78
2023/09/16 11:20:53;;;;;;;7.75;4.68;;;23.90;45.00;;;;;;5026588;28;114485;-79
2023/09/16 11:23:21;;;;;;;6.22;4.30;;;24.00;45.30;;;;;;5026676;28;114164;-77
2023/09/16 11:25:48;;;;;;;4.90;3.88;;;24.00;45.00;;;;;;5024459;28;117797;-79
2023/09/16 11:28:18;;;;;;;5.75;3.83;;;24.00;44.80;;;;;;5026747;27;115162;-79
2023/09/16 11:30:55;;;;;;;6.15;4.20;;;24.00;44.50;;;;;;5026548;28;114282;-79
2023/09/16 11:33:27;;;;;;;4.78;3.78;;;23.90;44.70;;;;;;5026138;28;114329;-78
2023/09/16 11:36:05;;;;;;;5.22;3.90;;;23.90;44.80;;;;;;5026711;28;114967;-77
2023/09/16 11:38:32;;;;;;;6.15;3.92;;;23.80;44.80;;;;;;5025518;28;115660;-79
2023/09/16 11:41:09;;;;;;;5.20;3.85;;;23.80;45.00;;;;;;5028697;27;114304;-78
2023/09/16 11:43:37;;;;;;;5.10;3.63;;;23.80;44.80;;;;;;5025694;28;114658;-79
2023/09/16 11:46:08;;;;;;;5.70;4.28;;;23.70;45.20;;;;;;5009161;28;114981;-79
2023/09/16 11:49:16;;;;;;;5.15;3.80;;;23.70;45.60;;;;;;5008952;28;114721;-79
2023/09/16 11:51:45;;;;;;;5.57;3.95;;;23.70;45.50;;;;;;4946222;28;114558;-79
2023/09/16 11:54:13;;;;;;;6.25;3.83;;;23.60;45.90;;;;;;4947555;28;114419;-78
2023/09/16 11:56:40;;;;;;;6.60;3.65;;;23.70;45.60;;;;;;4986833;27;115039;-77
2023/09/16 11:59:07;;;;;;;5.00;3.95;;;23.70;45.40;;;;;;5024988;28;115092;-78
2023/09/16 12:01:35;;;;;;;6.32;3.92;;;23.60;45.40;;;;;;5027544;28;114286;-78
2023/09/16 12:04:04;;;;;;;5.20;4.43;;;23.60;45.40;;;;;;5026129;28;114243;-79
2023/09/16 12:06:34;;;;;;;5.57;3.90;;;23.60;45.60;;;;;;5008527;28;114988;-79
2023/09/16 12:09:03;;;;;;;4.75;3.72;;;23.50;45.70;;;;;;5025328;28;114681;-77
2023/09/16 12:11:31;;;;;;;5.35;3.60;;;23.60;45.50;;;;;;5025878;28;114323;-78
2023/09/16 12:14:00;;;;;;;6.88;3.80;;;23.70;45.50;;;;;;5026912;27;115811;-79
2023/09/16 12:16:27;;;;;;;6.82;3.60;;;23.70;45.00;;;;;;5025504;28;115038;-78
2023/09/16 12:18:55;;;;;;;6.00;3.90;;;23.70;45.20;;;;;;4991555;28;115113;-77
2023/09/16 12:21:22;;;;;;;5.43;3.92;;;23.70;45.70;;;;;;5025548;28;114293;-78
2023/09/16 12:23:51;;;;;;;6.38;3.90;;;23.70;45.80;;;;;;5025308;28;114394;-79
2023/09/16 12:26:18;;;;;;;5.80;4.30;;;23.60;45.60;;;;;;5007705;28;116286;-79
2023/09/16 12:28:46;;;;;;;7.22;4.85;;;23.60;46.10;;;;;;5025977;27;115202;-79
2023/09/16 12:31:21;;;;;;;5.78;3.65;;;23.60;45.80;;;;;;5026594;28;114171;-78
2023/09/16 12:33:53;;;;;;;7.20;4.35;;;23.70;45.50;;;;;;5025482;28;114165;-77
2023/09/16 12:36:28;;;;;;;7.18;4.10;;;23.70;45.50;;;;;;5025597;27;114979;-78
2023/09/16 12:38:56;;;;;;;5.60;4.03;;;23.70;45.60;;;;;;5024462;28;115115;-80
2023/09/16 12:41:25;;;;;;;6.75;4.03;;;23.80;45.80;;;;;;5025922;27;114331;-78
2023/09/16 12:43:53;;;;;;;6.32;3.78;;;23.80;45.80;;;;;;5025742;28;114458;-78